| time (UTC) | temp F | wind direction | speed MPH | gust MPH | rain 1hr in | rain 24hr in | rain mn in | humidity % | barometer mb |
| 20260505112017 | 54 | 225 | 2.0 | 5.0 | 0.00 | 0.00 | 0.00 | 91 | 1013.2 |
| 20260505111017 | 54 | 248 | 1.0 | 5.0 | 0.00 | 0.00 | 0.00 | 91 | 1013.1 |
| 20260505102016 | 53 | 248 | 1.0 | 5.0 | 0.00 | 0.00 | 0.00 | 92 | 1012.7 |
| 20260505101017 | 53 | 0.0 | 4.0 | 0.00 | 0.00 | 0.00 | 92 | 1012.7 | |
| 20260505100017 | 53 | 0.0 | 1.0 | 0.00 | 0.00 | 0.00 | 92 | 1012.5 | |
| 20260505095017 | 53 | 0.0 | 3.0 | 0.00 | 0.00 | 0.00 | 92 | 1012.5 | |
| 20260505094036 | 53 | 225 | 1.0 | 6.0 | 0.00 | 0.00 | 0.00 | 92 | 1012.5 |
| 20260505093016 | 53 | 203 | 1.0 | 4.0 | 0.00 | 0.00 | 0.00 | 91 | 1012.3 |
| 20260505092016 | 53 | 0.0 | 2.0 | 0.00 | 0.00 | 0.00 | 91 | 1012.2 | |
| 20260505091016 | 54 | 0.0 | 2.0 | 0.00 | 0.00 | 0.00 | 91 | 1012.2 | |
| 20260505090017 | 54 | 225 | 1.0 | 6.0 | 0.00 | 0.00 | 0.00 | 91 | 1012.2 |
| 20260505085016 | 54 | 225 | 1.0 | 4.0 | 0.00 | 0.00 | 0.00 | 90 | 1012.2 |
| 20260505084016 | 54 | 0.0 | 3.0 | 0.00 | 0.00 | 0.00 | 90 | 1012.1 | |
| 20260505083016 | 54 | 225 | 1.0 | 5.0 | 0.00 | 0.00 | 0.00 | 90 | 1011.9 |
| 20260505082016 | 55 | 0.0 | 1.0 | 0.00 | 0.00 | 0.00 | 89 | 1011.9 | |
| 20260505081036 | 55 | 203 | 1.0 | 5.0 | 0.00 | 0.00 | 0.00 | 89 | 1012.0 |
| 20260505080016 | 55 | 225 | 1.0 | 5.0 | 0.00 | 0.00 | 0.00 | 89 | 1011.8 |
| 20260505075016 | 55 | 248 | 1.0 | 8.0 | 0.00 | 0.00 | 0.00 | 89 | 1011.8 |
| 20260505074016 | 55 | 0.0 | 4.0 | 0.00 | 0.00 | 0.00 | 88 | 1011.8 | |
| 20260505073016 | 56 | 0.0 | 5.0 | 0.00 | 0.00 | 0.00 | 88 | 1011.7 | |
| 20260505072016 | 56 | 0.0 | 2.0 | 0.00 | 0.00 | 0.00 | 87 | 1011.5 | |
| 20260505071016 | 56 | 0.0 | 1.0 | 0.00 | 0.00 | 0.00 | 86 | 1011.4 | |
| 20260505070016 | 56 | 0.0 | 1.0 | 0.00 | 0.00 | 0.00 | 86 | 1011.3 | |
| 20260505065015 | 57 | 0.0 | 1.0 | 0.00 | 0.00 | 0.00 | 85 | 1011.2 | |
| 20260505064015 | 57 | 0.0 | 1.0 | 0.00 | 0.00 | 0.00 | 84 | 1011.1 | |
| 20260505063015 | 58 | 0.0 | 2.0 | 0.00 | 0.00 | 0.00 | 83 | 1011.0 | |
| 20260505062015 | 58 | 0.0 | 2.0 | 0.00 | 0.00 | 0.00 | 83 | 1010.9 | |
| 20260505061015 | 59 | 0.0 | 3.0 | 0.00 | 0.00 | 0.00 | 82 | 1010.7 | |
| 20260505060015 | 59 | 0.0 | 0.0 | 0.00 | 0.00 | 0.00 | 81 | 1010.6 | |
| 20260505055035 | 60 | 0.0 | 1.0 | 0.00 | 0.00 | 0.00 | 80 | 1010.5 | |
| 20260505054015 | 60 | 0.0 | 3.0 | 0.00 | 0.00 | 0.00 | 80 | 1010.5 | |
| 20260505053015 | 61 | 0.0 | 3.0 | 0.00 | 0.00 | 0.00 | 79 | 1010.4 | |
| 20260505052015 | 62 | 225 | 1.0 | 4.0 | 0.00 | 0.00 | 0.00 | 78 | 1010.2 |
| 20260505051017 | 62 | 0.0 | 2.0 | 0.00 | 0.00 | 0.00 | 78 | 1010.1 | |
| 20260505041016 | 65 | 225 | 1.0 | 3.0 | 0.00 | 0.00 | 0.00 | 73 | 1009.7 |
| 20260505040017 | 66 | 0.0 | 2.0 | 0.00 | 0.00 | 0.00 | 72 | 1009.5 | |
| 20260505035016 | 66 | 225 | 2.0 | 6.0 | 0.00 | 0.00 | 0.00 | 70 | 1009.2 |
| 20260505034017 | 67 | 225 | 1.0 | 5.0 | 0.00 | 0.00 | 0.00 | 69 | 1009.1 |
| 20260505033057 | 69 | 225 | 1.0 | 6.0 | 0.00 | 0.00 | 0.00 | 66 | 1009.1 |
| 20260505032016 | 70 | 0.0 | 4.0 | 0.00 | 0.00 | 0.00 | 64 | 1009.1 | |
| 20260505031016 | 70 | 0.0 | 2.0 | 0.00 | 0.00 | 0.00 | 62 | 1009.0 | |
| 20260505030016 | 71 | 0.0 | 1.0 | 0.00 | 0.00 | 0.00 | 60 | 1008.9 | |
| 20260505025036 | 72 | 0.0 | 2.0 | 0.00 | 0.00 | 0.00 | 59 | 1008.9 | |
| 20260505024037 | 72 | 0.0 | 0.0 | 0.00 | 0.00 | 0.00 | 58 | 1008.7 | |
| 20260505023016 | 73 | 0.0 | 1.0 | 0.00 | 0.00 | 0.00 | 56 | 1008.7 | |
| 20260505022036 | 75 | 0.0 | 0.0 | 0.00 | 0.00 | 0.00 | 55 | 1008.7 | |
| 20260505021017 | 76 | 0.0 | 1.0 | 0.00 | 0.00 | 0.00 | 55 | 1008.8 | |
| 20260505020017 | 76 | 225 | 1.0 | 6.0 | 0.00 | 0.00 | 0.00 | 55 | 1008.8 |
| 20260505015017 | 76 | 180 | 1.0 | 6.0 | 0.00 | 0.00 | 0.00 | 54 | 1008.7 |
| 20260505014036 | 77 | 225 | 1.0 | 4.0 | 0.00 | 0.00 | 0.00 | 52 | 1008.8 |
| 20260505013016 | 77 | 225 | 1.0 | 3.0 | 0.00 | 0.00 | 0.00 | 50 | 1008.8 |
| 20260505012016 | 78 | 225 | 2.0 | 5.0 | 0.00 | 0.00 | 0.00 | 48 | 1008.8 |
| 20260505011016 | 79 | 225 | 1.0 | 5.0 | 0.00 | 0.00 | 0.00 | 46 | 1008.8 |
| 20260505010016 | 80 | 0.0 | 1.0 | 0.00 | 0.00 | 0.00 | 46 | 1008.9 | |
| 20260505005016 | 81 | 0.0 | 5.0 | 0.00 | 0.00 | 0.00 | 44 | 1008.8 | |
| 20260505004016 | 82 | 0.0 | 3.0 | 0.00 | 0.00 | 0.00 | 43 | 1008.9 | |
| 20260505003016 | 81 | 225 | 1.0 | 4.0 | 0.00 | 0.00 | 0.00 | 42 | 1008.9 |
| 20260505002016 | 82 | 158 | 1.0 | 5.0 | 0.00 | 0.00 | 0.00 | 42 | 1009.0 |
| 20260505001016 | 82 | 248 | 1.0 | 5.0 | 0.00 | 0.00 | 0.00 | 42 | 1009.0 |
| 20260505000016 | 83 | 0.0 | 3.0 | 0.00 | 0.00 | 0.00 | 42 | 1009.0 | |
| 20260504235016 | 82 | 0.0 | 3.0 | 0.00 | 0.00 | 0.00 | 42 | 1009.0 | |
| 20260504234016 | 82 | 203 | 1.0 | 3.0 | 0.00 | 0.00 | 0.00 | 41 | 1009.1 |
| 20260504233016 | 82 | 225 | 1.0 | 6.0 | 0.00 | 0.00 | 0.00 | 42 | 1009.1 |
| 20260504232056 | 81 | 225 | 1.0 | 4.0 | 0.00 | 0.00 | 0.00 | 41 | 1009.1 |
| 20260504231016 | 82 | 225 | 1.0 | 6.0 | 0.00 | 0.00 | 0.00 | 41 | 1009.0 |
| 20260504230016 | 82 | 203 | 1.0 | 5.0 | 0.00 | 0.00 | 0.00 | 41 | 1009.1 |
| 20260504225016 | 81 | 225 | 1.0 | 2.0 | 0.00 | 0.00 | 0.00 | 40 | 1009.3 |
| 20260504224016 | 81 | 225 | 1.0 | 7.0 | 0.00 | 0.00 | 0.00 | 40 | 1009.5 |
| 20260504223016 | 81 | 203 | 1.0 | 4.0 | 0.00 | 0.00 | 0.00 | 39 | 1009.5 |
| 20260504222016 | 80 | 225 | 2.0 | 8.0 | 0.00 | 0.00 | 0.00 | 38 | 1009.7 |
| 20260504221016 | 80 | 203 | 1.0 | 4.0 | 0.00 | 0.00 | 0.00 | 39 | 1009.8 |
| 20260504220016 | 80 | 225 | 1.0 | 4.0 | 0.00 | 0.00 | 0.00 | 43 | 1009.8 |
| 20260504215016 | 80 | 0.0 | 3.0 | 0.00 | 0.00 | 0.00 | 46 | 1009.9 | |
| 20260504214016 | 79 | 225 | 1.0 | 4.0 | 0.00 | 0.00 | 0.00 | 49 | 1009.9 |
| 20260504213016 | 80 | 225 | 1.0 | 4.0 | 0.00 | 0.00 | 0.00 | 47 | 1009.8 |
| 20260504212016 | 79 | 0.0 | 3.0 | 0.00 | 0.00 | 0.00 | 48 | 1010.1 | |
| 20260504211016 | 79 | 225 | 1.0 | 5.0 | 0.00 | 0.00 | 0.00 | 46 | 1010.1 |
| 20260504210016 | 79 | 270 | 1.0 | 3.0 | 0.00 | 0.00 | 0.00 | 47 | 1010.1 |
| 20260504205016 | 78 | 225 | 1.0 | 6.0 | 0.00 | 0.00 | 0.00 | 46 | 1010.0 |
| 20260504204036 | 78 | 225 | 1.0 | 7.0 | 0.00 | 0.00 | 0.00 | 43 | 1010.1 |
| 20260504203016 | 77 | 225 | 2.0 | 7.0 | 0.00 | 0.00 | 0.00 | 40 | 1010.1 |
| 20260504202016 | 77 | 0.0 | 4.0 | 0.00 | 0.00 | 0.00 | 46 | 1010.1 | |
| 20260504201016 | 77 | 225 | 1.0 | 5.0 | 0.00 | 0.00 | 0.00 | 48 | 1010.0 |
| 20260504200036 | 77 | 248 | 1.0 | 5.0 | 0.00 | 0.00 | 0.00 | 49 | 1010.1 |
| 20260504195016 | 77 | 225 | 1.0 | 6.0 | 0.00 | 0.00 | 0.00 | 47 | 1010.1 |
| 20260504194036 | 76 | 225 | 1.0 | 5.0 | 0.00 | 0.00 | 0.00 | 46 | 1010.0 |
| 20260504193016 | 77 | 225 | 1.0 | 5.0 | 0.00 | 0.00 | 0.00 | 44 | 1010.2 |
| 20260504192015 | 76 | 0.0 | 3.0 | 0.00 | 0.00 | 0.00 | 46 | 1010.2 | |
| 20260504191016 | 76 | 225 | 1.0 | 5.0 | 0.00 | 0.00 | 0.00 | 46 | 1010.4 |
| 20260504190015 | 75 | 0.0 | 2.0 | 0.00 | 0.00 | 0.00 | 48 | 1010.6 | |
| 20260504185055 | 75 | 0.0 | 4.0 | 0.00 | 0.00 | 0.00 | 48 | 1010.6 | |
| 20260504184015 | 75 | 0.0 | 2.0 | 0.00 | 0.00 | 0.00 | 48 | 1010.6 | |
| 20260504183015 | 75 | 0.0 | 1.0 | 0.00 | 0.00 | 0.00 | 49 | 1010.5 | |
| 20260504182015 | 74 | 0.0 | 2.0 | 0.00 | 0.00 | 0.00 | 51 | 1010.5 | |
| 20260504181015 | 73 | 225 | 1.0 | 4.0 | 0.00 | 0.00 | 0.00 | 52 | 1010.6 |
| 20260504180016 | 73 | 0.0 | 2.0 | 0.00 | 0.00 | 0.00 | 52 | 1010.5 | |
| 20260504175017 | 72 | 0.0 | 3.0 | 0.00 | 0.00 | 0.00 | 52 | 1010.5 | |
| 20260504174016 | 72 | 0.0 | 3.0 | 0.00 | 0.00 | 0.00 | 54 | 1010.5 | |
| 20260504173015 | 71 | 0.0 | 1.0 | 0.00 | 0.00 | 0.00 | 56 | 1010.5 | |
| 20260504172015 | 69 | 0.0 | 3.0 | 0.00 | 0.00 | 0.00 | 59 | 1010.5 | |
| 20260504171015 | 68 | 0.0 | 1.0 | 0.00 | 0.00 | 0.00 | 61 | 1010.5 | |
| 20260504151015 | 60 | 0.0 | 0.0 | 0.00 | 0.00 | 0.00 | 78 | 1009.9 | |
| 20260504141015 | 54 | 0.0 | 0.0 | 0.00 | 0.00 | 0.00 | 86 | 1009.6 |